sensor_id;sensor_type;location;lat;lon;timestamp;pressure;altitude;pressure_sealevel;temperature;humidity
62791;BME280;48830;53.426;10.300;2023-03-20T00:00:41;101628.31;;;9.53;100.00
62791;BME280;48830;53.426;10.300;2023-03-20T00:03:09;101628.44;;;9.58;100.00
62791;BME280;48830;53.426;10.300;2023-03-20T00:05:35;101631.78;;;9.55;100.00
62791;BME280;48830;53.426;10.300;2023-03-20T00:08:01;101629.03;;;9.49;100.00
62791;BME280;48830;53.426;10.300;2023-03-20T00:10:34;101632.31;;;9.45;100.00
62791;BME280;48830;53.426;10.300;2023-03-20T00:13:01;101631.69;;;9.52;100.00
62791;BME280;48830;53.426;10.300;2023-03-20T00:15:38;101629.19;;;9.54;100.00
62791;BME280;48830;53.426;10.300;2023-03-20T00:18:14;101630.13;;;9.57;100.00
62791;BME280;48830;53.426;10.300;2023-03-20T00:20:40;101625.78;;;9.55;100.00
62791;BME280;48830;53.426;10.300;2023-03-20T00:23:06;101626.66;;;9.55;100.00
62791;BME280;48830;53.426;10.300;2023-03-20T00:25:31;101625.84;;;9.56;100.00
62791;BME280;48830;53.426;10.300;2023-03-20T00:27:58;101622.34;;;9.54;100.00
62791;BME280;48830;53.426;10.300;2023-03-20T00:30:28;101623.31;;;9.58;100.00
62791;BME280;48830;53.426;10.300;2023-03-20T00:32:56;101624.81;;;9.51;100.00
62791;BME280;48830;53.426;10.300;2023-03-20T00:35:28;101624.13;;;9.57;100.00
62791;BME280;48830;53.426;10.300;2023-03-20T00:37:55;101615.56;;;9.56;100.00
62791;BME280;48830;53.426;10.300;2023-03-20T00:40:21;101618.97;;;9.55;100.00
62791;BME280;48830;53.426;10.300;2023-03-20T00:42:50;101612.97;;;9.55;100.00
62791;BME280;48830;53.426;10.300;2023-03-20T00:45:21;101609.47;;;9.53;100.00
62791;BME280;48830;53.426;10.300;2023-03-20T00:47:49;101604.28;;;9.51;100.00
62791;BME280;48830;53.426;10.300;2023-03-20T00:50:29;101608.53;;;9.51;100.00
62791;BME280;48830;53.426;10.300;2023-03-20T00:52:57;101609.84;;;9.38;100.00
62791;BME280;48830;53.426;10.300;2023-03-20T00:55:27;101610.03;;;9.44;100.00
62791;BME280;48830;53.426;10.300;2023-03-20T00:57:58;101608.38;;;9.46;100.00
62791;BME280;48830;53.426;10.300;2023-03-20T01:00:41;101598.03;;;9.43;100.00
62791;BME280;48830;53.426;10.300;2023-03-20T01:05:38;101602.03;;;9.35;100.00
62791;BME280;48830;53.426;10.300;2023-03-20T01:08:12;101609.72;;;9.35;100.00
62791;BME280;48830;53.426;10.300;2023-03-20T01:10:38;101613.81;;;9.30;100.00
62791;BME280;48830;53.426;10.300;2023-03-20T01:13:05;101606.88;;;9.26;100.00
62791;BME280;48830;53.426;10.300;2023-03-20T01:15:34;101612.97;;;9.29;100.00
62791;BME280;48830;53.426;10.300;2023-03-20T01:18:00;101603.53;;;9.28;100.00
62791;BME280;48830;53.426;10.300;2023-03-20T01:20:27;101607.63;;;9.23;100.00
62791;BME280;48830;53.426;10.300;2023-03-20T01:22:54;101603.38;;;9.24;100.00
62791;BME280;48830;53.426;10.300;2023-03-20T01:25:19;101610.06;;;9.20;100.00
62791;BME280;48830;53.426;10.300;2023-03-20T01:27:51;101614.41;;;9.21;100.00
62791;BME280;48830;53.426;10.300;2023-03-20T01:30:18;101622.97;;;9.22;100.00
62791;BME280;48830;53.426;10.300;2023-03-20T01:32:44;101625.75;;;9.28;100.00
62791;BME280;48830;53.426;10.300;2023-03-20T01:35:13;101613.81;;;9.30;100.00
62791;BME280;48830;53.426;10.300;2023-03-20T01:37:39;101618.78;;;9.25;100.00
62791;BME280;48830;53.426;10.300;2023-03-20T01:40:18;101618.88;;;9.27;100.00
62791;BME280;48830;53.426;10.300;2023-03-20T01:42:48;101625.69;;;9.26;100.00
62791;BME280;48830;53.426;10.300;2023-03-20T01:45:17;101622.34;;;9.29;100.00
62791;BME280;48830;53.426;10.300;2023-03-20T01:47:46;101620.78;;;9.32;100.00
62791;BME280;48830;53.426;10.300;2023-03-20T01:50:21;101620.00;;;9.35;100.00
62791;BME280;48830;53.426;10.300;2023-03-20T01:52:50;101616.72;;;9.39;100.00
62791;BME280;48830;53.426;10.300;2023-03-20T01:55:19;101612.50;;;9.41;100.00
62791;BME280;48830;53.426;10.300;2023-03-20T01:57:52;101609.13;;;9.42;100.00
62791;BME280;48830;53.426;10.300;2023-03-20T02:00:19;101613.22;;;9.37;100.00
62791;BME280;48830;53.426;10.300;2023-03-20T02:02:47;101615.94;;;9.41;100.00
62791;BME280;48830;53.426;10.300;2023-03-20T02:05:28;101614.03;;;9.36;100.00
62791;BME280;48830;53.426;10.300;2023-03-20T02:10:49;101626.16;;;9.40;100.00
62791;BME280;48830;53.426;10.300;2023-03-20T02:13:21;101615.06;;;9.41;100.00
62791;BME280;48830;53.426;10.300;2023-03-20T02:16:15;101614.34;;;9.45;100.00
62791;BME280;48830;53.426;10.300;2023-03-20T02:19:03;101617.53;;;9.38;100.00
62791;BME280;48830;53.426;10.300;2023-03-20T02:22:06;101621.13;;;9.43;100.00
62791;BME280;48830;53.426;10.300;2023-03-20T02:27:43;101611.47;;;9.36;100.00
62791;BME280;48830;53.426;10.300;2023-03-20T02:30:41;101607.25;;;9.36;100.00
62791;BME280;48830;53.426;10.300;2023-03-20T02:43:42;101593.13;;;9.51;100.00
62791;BME280;48830;53.426;10.300;2023-03-20T02:56:58;101601.00;;;9.55;100.00
62791;BME280;48830;53.426;10.300;2023-03-20T03:02:26;101596.06;;;9.61;100.00
62791;BME280;48830;53.426;10.300;2023-03-20T03:04:58;101592.78;;;9.65;100.00
62791;BME280;48830;53.426;10.300;2023-03-20T03:07:28;101592.78;;;9.65;100.00
62791;BME280;48830;53.426;10.300;2023-03-20T03:10:01;101599.56;;;9.63;100.00
62791;BME280;48830;53.426;10.300;2023-03-20T03:12:31;101592.78;;;9.65;100.00
62791;BME280;48830;53.426;10.300;2023-03-20T03:15:05;101589.19;;;9.60;100.00
62791;BME280;48830;53.426;10.300;2023-03-20T03:17:34;101590.88;;;9.60;100.00
62791;BME280;48830;53.426;10.300;2023-03-20T03:20:06;101587.38;;;9.58;100.00
62791;BME280;48830;53.426;10.300;2023-03-20T03:22:34;101593.50;;;9.61;100.00
62791;BME280;48830;53.426;10.300;2023-03-20T03:25:00;101585.78;;;9.61;100.00
62791;BME280;48830;53.426;10.300;2023-03-20T03:27:53;101597.78;;;9.62;100.00
62791;BME280;48830;53.426;10.300;2023-03-20T03:30:27;101596.06;;;9.61;100.00
62791;BME280;48830;53.426;10.300;2023-03-20T03:35:36;101597.72;;;9.59;100.00
62791;BME280;48830;53.426;10.300;2023-03-20T03:43:34;101589.00;;;9.54;100.00
62791;BME280;48830;53.426;10.300;2023-03-20T03:46:09;101593.34;;;9.57;100.00
62791;BME280;48830;53.426;10.300;2023-03-20T03:48:41;101580.47;;;9.55;100.00
62791;BME280;48830;53.426;10.300;2023-03-20T03:51:13;101578.88;;;9.59;100.00
62791;BME280;48830;53.426;10.300;2023-03-20T03:53:59;101577.91;;;9.55;100.00
62791;BME280;48830;53.426;10.300;2023-03-20T03:56:30;101569.19;;;9.50;100.00
62791;BME280;48830;53.426;10.300;2023-03-20T03:59:01;101574.34;;;9.52;100.00
62791;BME280;48830;53.426;10.300;2023-03-20T04:01:30;101580.41;;;9.54;100.00
62791;BME280;48830;53.426;10.300;2023-03-20T04:04:03;101572.66;;;9.52;100.00
62791;BME280;48830;53.426;10.300;2023-03-20T04:06:31;101571.03;;;9.54;100.00
62791;BME280;48830;53.426;10.300;2023-03-20T04:08:57;101568.41;;;9.53;100.00
62791;BME280;48830;53.426;10.300;2023-03-20T04:11:25;101571.84;;;9.53;100.00
62791;BME280;48830;53.426;10.300;2023-03-20T04:13:52;101571.84;;;9.53;100.00
62791;BME280;48830;53.426;10.300;2023-03-20T04:16:20;101575.22;;;9.52;100.00
62791;BME280;48830;53.426;10.300;2023-03-20T04:18:47;101571.84;;;9.53;100.00
62791;BME280;48830;53.426;10.300;2023-03-20T04:21:14;101570.88;;;9.50;100.00
62791;BME280;48830;53.426;10.300;2023-03-20T04:23:41;101576.91;;;9.52;100.00
62791;BME280;48830;53.426;10.300;2023-03-20T04:26:07;101585.41;;;9.49;100.00
62791;BME280;48830;53.426;10.300;2023-03-20T04:28:34;101579.28;;;9.45;100.00
62791;BME280;48830;53.426;10.300;2023-03-20T04:31:17;101572.59;;;9.51;100.00
62791;BME280;48830;53.426;10.300;2023-03-20T04:34:02;101575.13;;;9.49;100.00
62791;BME280;48830;53.426;10.300;2023-03-20T04:36:54;101578.38;;;9.43;100.00
62791;BME280;48830;53.426;10.300;2023-03-20T04:39:24;101571.44;;;9.41;100.00
62791;BME280;48830;53.426;10.300;2023-03-20T04:41:50;101574.06;;;9.42;100.00
62791;BME280;48830;53.426;10.300;2023-03-20T04:44:16;101570.63;;;9.42;100.00
62791;BME280;48830;53.426;10.300;2023-03-20T04:46:43;101580.66;;;9.36;100.00
62791;BME280;48830;53.426;10.300;2023-03-20T04:49:14;101582.44;;;9.37;100.00
62791;BME280;48830;53.426;10.300;2023-03-20T04:51:40;101571.19;;;9.33;100.00
62791;BME280;48830;53.426;10.300;2023-03-20T04:54:06;101578.06;;;9.34;100.00
62791;BME280;48830;53.426;10.300;2023-03-20T04:56:32;101570.22;;;9.30;100.00
62791;BME280;48830;53.426;10.300;2023-03-20T04:59:13;101574.44;;;9.28;100.00
62791;BME280;48830;53.426;10.300;2023-03-20T05:01:39;101576.09;;;9.26;100.00
62791;BME280;48830;53.426;10.300;2023-03-20T05:04:04;101569.19;;;9.25;100.00
62791;BME280;48830;53.426;10.300;2023-03-20T05:06:31;101570.72;;;9.19;100.00
62791;BME280;48830;53.426;10.300;2023-03-20T05:08:58;101567.25;;;9.17;100.00
62791;BME280;48830;53.426;10.300;2023-03-20T05:11:26;101568.16;;;9.19;100.00
62791;BME280;48830;53.426;10.300;2023-03-20T05:14:10;101567.38;;;9.20;100.00
62791;BME280;48830;53.426;10.300;2023-03-20T05:17:11;101567.81;;;9.09;100.00
62791;BME280;48830;53.426;10.300;2023-03-20T05:19:55;101566.72;;;9.02;100.00
62791;BME280;48830;53.426;10.300;2023-03-20T05:22:50;101574.59;;;9.07;100.00
62791;BME280;48830;53.426;10.300;2023-03-20T05:25:34;101576.16;;;9.03;100.00
62791;BME280;48830;53.426;10.300;2023-03-20T05:28:22;101570.31;;;9.07;100.00
62791;BME280;48830;53.426;10.300;2023-03-20T05:31:08;101569.66;;;9.13;100.00
62791;BME280;48830;53.426;10.300;2023-03-20T05:33:49;101582.25;;;9.05;100.00
62791;BME280;48830;53.426;10.300;2023-03-20T05:36:25;101573.09;;;9.13;100.00
62791;BME280;48830;53.426;10.300;2023-03-20T05:39:13;101583.31;;;9.12;100.00
62791;BME280;48830;53.426;10.300;2023-03-20T05:41:55;101587.59;;;9.13;100.00
62791;BME280;48830;53.426;10.300;2023-03-20T05:44:39;101589.25;;;9.11;100.00
62791;BME280;48830;53.426;10.300;2023-03-20T05:47:20;101593.56;;;9.12;100.00
62791;BME280;48830;53.426;10.300;2023-03-20T05:50:10;101592.16;;;8.96;100.00
62791;BME280;48830;53.426;10.300;2023-03-20T05:52:48;101600.19;;;9.05;100.00
62791;BME280;48830;53.426;10.300;2023-03-20T05:55:32;101599.44;;;9.09;100.00
62791;BME280;48830;53.426;10.300;2023-03-20T05:58:24;101599.97;;;8.99;100.00
62791;BME280;48830;53.426;10.300;2023-03-20T06:01:08;101597.41;;;8.99;100.00
62791;BME280;48830;53.426;10.300;2023-03-20T06:03:52;101600.09;;;9.04;100.00
62791;BME280;48830;53.426;10.300;2023-03-20T06:06:36;101603.63;;;9.06;100.00
62791;BME280;48830;53.426;10.300;2023-03-20T06:09:03;101607.09;;;9.08;100.00
62791;BME280;48830;53.426;10.300;2023-03-20T06:11:29;101617.19;;;9.03;100.00
62791;BME280;48830;53.426;10.300;2023-03-20T06:13:55;101614.84;;;9.09;100.00
62791;BME280;48830;53.426;10.300;2023-03-20T06:16:29;101612.34;;;9.11;100.00
62791;BME280;48830;53.426;10.300;2023-03-20T06:18:55;101609.81;;;9.12;100.00
62791;BME280;48830;53.426;10.300;2023-03-20T06:21:20;101618.44;;;9.14;100.00
62791;BME280;48830;53.426;10.300;2023-03-20T06:23:46;101620.09;;;9.12;100.00
62791;BME280;48830;53.426;10.300;2023-03-20T06:26:11;101621.00;;;9.14;100.00
62791;BME280;48830;53.426;10.300;2023-03-20T06:28:50;101614.84;;;9.09;100.00
62791;BME280;48830;53.426;10.300;2023-03-20T06:31:16;101615.06;;;9.15;100.00
62791;BME280;48830;53.426;10.300;2023-03-20T06:33:42;101615.16;;;9.18;100.00
62791;BME280;48830;53.426;10.300;2023-03-20T06:36:08;101623.81;;;9.20;100.00
62791;BME280;48830;53.426;10.300;2023-03-20T06:38:34;101626.28;;;9.19;100.00
62791;BME280;48830;53.426;10.300;2023-03-20T06:41:05;101620.41;;;9.22;100.00
62791;BME280;48830;53.426;10.300;2023-03-20T06:43:31;101624.84;;;9.26;100.00
62791;BME280;48830;53.426;10.300;2023-03-20T06:45:58;101627.41;;;9.26;100.00
62791;BME280;48830;53.426;10.300;2023-03-20T06:48:25;101632.53;;;9.26;100.00
62791;BME280;48830;53.426;10.300;2023-03-20T06:50:51;101625.75;;;9.28;100.00
62791;BME280;48830;53.426;10.300;2023-03-20T06:53:20;101624.22;;;9.33;100.00
62791;BME280;48830;53.426;10.300;2023-03-20T06:56:00;101626.97;;;9.39;100.00
62791;BME280;48830;53.426;10.300;2023-03-20T06:58:25;101619.94;;;9.33;100.00
62791;BME280;48830;53.426;10.300;2023-03-20T07:00:51;101622.50;;;9.33;100.00
62791;BME280;48830;53.426;10.300;2023-03-20T07:03:18;101626.06;;;9.37;100.00
62791;BME280;48830;53.426;10.300;2023-03-20T07:05:46;101638.06;;;9.38;100.00
62791;BME280;48830;53.426;10.300;2023-03-20T07:08:12;101647.69;;;9.45;100.00
62791;BME280;48830;53.426;10.300;2023-03-20T07:10:39;101644.91;;;9.37;100.00
62791;BME280;48830;53.426;10.300;2023-03-20T07:13:04;101644.06;;;9.38;100.00
62791;BME280;48830;53.426;10.300;2023-03-20T07:15:31;101639.91;;;9.42;100.00
62791;BME280;48830;53.426;10.300;2023-03-20T07:17:56;101646.09;;;9.47;100.00
62791;BME280;48830;53.426;10.300;2023-03-20T07:20:24;101648.72;;;9.50;100.00
62791;BME280;48830;53.426;10.300;2023-03-20T07:22:50;101653.13;;;9.53;100.00
62791;BME280;48830;53.426;10.300;2023-03-20T07:25:20;101645.28;;;9.50;100.00
62791;BME280;48830;53.426;10.300;2023-03-20T07:27:47;101654.06;;;9.56;100.00
62791;BME280;48830;53.426;10.300;2023-03-20T07:30:17;101658.34;;;9.56;100.00
62791;BME280;48830;53.426;10.300;2023-03-20T07:32:44;101659.13;;;9.53;100.00
62791;BME280;48830;53.426;10.300;2023-03-20T07:35:11;101655.41;;;9.45;100.00
62791;BME280;48830;53.426;10.300;2023-03-20T07:37:39;101651.94;;;9.43;100.00
62791;BME280;48830;53.426;10.300;2023-03-20T07:40:06;101651.25;;;9.49;100.00
62791;BME280;48830;53.426;10.300;2023-03-20T07:42:34;101653.00;;;9.50;100.00
62791;BME280;48830;53.426;10.300;2023-03-20T07:45:20;101658.25;;;9.53;100.00
62791;BME280;48830;53.426;10.300;2023-03-20T07:47:45;101664.25;;;9.53;100.00
62791;BME280;48830;53.426;10.300;2023-03-20T07:50:13;101662.22;;;9.44;100.00
62791;BME280;48830;53.426;10.300;2023-03-20T07:52:47;101659.88;;;9.51;100.00
62791;BME280;48830;53.426;10.300;2023-03-20T07:55:14;101663.94;;;9.44;100.00
62791;BME280;48830;53.426;10.300;2023-03-20T07:57:41;101674.56;;;9.55;100.00
62791;BME280;48830;53.426;10.300;2023-03-20T08:00:08;101661.88;;;9.59;100.00
62791;BME280;48830;53.426;10.300;2023-03-20T08:02:37;101659.56;;;9.67;100.00
62791;BME280;48830;53.426;10.300;2023-03-20T08:05:02;101654.63;;;9.73;100.00
62791;BME280;48830;53.426;10.300;2023-03-20T08:07:28;101656.31;;;9.72;100.00
62791;BME280;48830;53.426;10.300;2023-03-20T08:09:54;101663.25;;;9.75;100.00
62791;BME280;48830;53.426;10.300;2023-03-20T08:12:20;101663.41;;;9.80;100.00
62791;BME280;48830;53.426;10.300;2023-03-20T08:14:45;101662.50;;;9.79;100.00
62791;BME280;48830;53.426;10.300;2023-03-20T08:17:11;101660.03;;;9.81;100.00
62791;BME280;48830;53.426;10.300;2023-03-20T08:19:36;101658.31;;;9.81;100.00
62791;BME280;48830;53.426;10.300;2023-03-20T08:22:02;101667.88;;;9.85;100.00
62791;BME280;48830;53.426;10.300;2023-03-20T08:24:28;101655.16;;;9.90;100.00
62791;BME280;48830;53.426;10.300;2023-03-20T08:26:54;101671.59;;;9.95;100.00
62791;BME280;48830;53.426;10.300;2023-03-20T08:29:20;101668.59;;;10.08;100.00
62791;BME280;48830;53.426;10.300;2023-03-20T08:31:45;101675.47;;;10.09;100.00
62791;BME280;48830;53.426;10.300;2023-03-20T08:34:11;101677.41;;;10.16;100.00
62791;BME280;48830;53.426;10.300;2023-03-20T08:36:37;101679.88;;;10.13;100.00
62791;BME280;48830;53.426;10.300;2023-03-20T08:39:04;101690.22;;;10.15;100.00
62791;BME280;48830;53.426;10.300;2023-03-20T08:41:32;101684.56;;;10.25;100.00
62791;BME280;48830;53.426;10.300;2023-03-20T08:43:57;101687.97;;;10.24;100.00
62791;BME280;48830;53.426;10.300;2023-03-20T08:46:23;101693.25;;;10.29;100.00
62791;BME280;48830;53.426;10.300;2023-03-20T08:48:49;101688.69;;;10.21;100.00
62791;BME280;48830;53.426;10.300;2023-03-20T08:51:14;101683.56;;;10.21;100.00
62791;BME280;48830;53.426;10.300;2023-03-20T08:53:40;101684.41;;;10.22;100.00
62791;BME280;48830;53.426;10.300;2023-03-20T08:56:06;101694.16;;;10.31;100.00
62791;BME280;48830;53.426;10.300;2023-03-20T08:58:31;101683.69;;;10.24;100.00
62791;BME280;48830;53.426;10.300;2023-03-20T09:01:03;101686.19;;;10.23;100.00
62791;BME280;48830;53.426;10.300;2023-03-20T09:03:28;101690.47;;;10.22;100.00
62791;BME280;48830;53.426;10.300;2023-03-20T09:05:54;101687.78;;;10.19;100.00
62791;BME280;48830;53.426;10.300;2023-03-20T09:08:19;101687.09;;;10.23;100.00
62791;BME280;48830;53.426;10.300;2023-03-20T09:10:47;101690.75;;;10.32;100.00
62791;BME280;48830;53.426;10.300;2023-03-20T09:13:13;101694.66;;;10.47;100.00
62791;BME280;48830;53.426;10.300;2023-03-20T09:15:39;101694.34;;;10.37;100.00
62791;BME280;48830;53.426;10.300;2023-03-20T09:18:04;101689.09;;;10.61;100.00
62791;BME280;48830;53.426;10.300;2023-03-20T09:20:30;101689.97;;;10.61;100.00
62791;BME280;48830;53.426;10.300;2023-03-20T09:22:56;101684.75;;;10.60;100.00
62791;BME280;48830;53.426;10.300;2023-03-20T09:25:21;101684.44;;;10.49;100.00
62791;BME280;48830;53.426;10.300;2023-03-20T09:27:50;101677.97;;;10.33;100.00
62791;BME280;48830;53.426;10.300;2023-03-20T09:30:16;101676.00;;;10.53;100.00
62791;BME280;48830;53.426;10.300;2023-03-20T09:32:41;101674.59;;;10.64;100.00
62791;BME280;48830;53.426;10.300;2023-03-20T09:35:07;101682.25;;;10.61;100.00
62791;BME280;48830;53.426;10.300;2023-03-20T09:37:33;101680.69;;;10.66;100.00
62791;BME280;48830;53.426;10.300;2023-03-20T09:39:58;101687.63;;;10.70;100.00
62791;BME280;48830;53.426;10.300;2023-03-20T09:42:46;101682.69;;;10.48;100.00
62791;BME280;48830;53.426;10.300;2023-03-20T09:53:30;101687.31;;;10.60;100.00
62791;BME280;48830;53.426;10.300;2023-03-20T09:55:59;101684.81;;;10.61;100.00
62791;BME280;48830;53.426;10.300;2023-03-20T09:58:32;101691.84;;;10.67;100.00
62791;BME280;48830;53.426;10.300;2023-03-20T10:01:00;101691.84;;;10.67;100.00
62791;BME280;48830;53.426;10.300;2023-03-20T10:03:31;101687.53;;;10.66;100.00
62791;BME280;48830;53.426;10.300;2023-03-20T10:06:05;101692.06;;;10.46;100.00
62791;BME280;48830;53.426;10.300;2023-03-20T10:08:36;101688.13;;;10.57;100.00
62791;BME280;48830;53.426;10.300;2023-03-20T10:20:33;101709.75;;;10.37;100.00
62791;BME280;48830;53.426;10.300;2023-03-20T10:25:49;101698.97;;;10.48;100.00
62791;BME280;48830;53.426;10.300;2023-03-20T10:28:21;101699.09;;;10.51;100.00
62791;BME280;48830;53.426;10.300;2023-03-20T10:36:57;101695.50;;;10.46;100.00
62791;BME280;48830;53.426;10.300;2023-03-20T10:39:45;101697.41;;;10.54;100.00
62791;BME280;48830;53.426;10.300;2023-03-20T10:42:24;101691.69;;;10.62;100.00
62791;BME280;48830;53.426;10.300;2023-03-20T10:45:05;101681.09;;;10.51;100.00
62791;BME280;48830;53.426;10.300;2023-03-20T10:47:35;101685.13;;;10.43;100.00
62791;BME280;48830;53.426;10.300;2023-03-20T10:50:10;101681.16;;;10.55;100.00
62791;BME280;48830;53.426;10.300;2023-03-20T10:52:40;101674.53;;;10.61;100.00
62791;BME280;48830;53.426;10.300;2023-03-20T10:55:14;101673.66;;;10.61;100.00
62791;BME280;48830;53.426;10.300;2023-03-20T10:57:46;101678.88;;;10.64;100.00
62791;BME280;48830;53.426;10.300;2023-03-20T11:00:18;101671.13;;;10.34;100.00
62791;BME280;48830;53.426;10.300;2023-03-20T11:02:45;101668.25;;;10.51;100.00
62791;BME280;48830;53.426;10.300;2023-03-20T11:05:31;101667.38;;;10.51;100.00
62791;BME280;48830;53.426;10.300;2023-03-20T11:08:06;101663.25;;;10.56;100.00
62791;BME280;48830;53.426;10.300;2023-03-20T11:10:34;101656.66;;;10.66;100.00
62791;BME280;48830;53.426;10.300;2023-03-20T11:13:40;101665.97;;;10.62;100.00
62791;BME280;48830;53.426;10.300;2023-03-20T11:16:16;101671.47;;;10.74;100.00
62791;BME280;48830;53.426;10.300;2023-03-20T11:18:42;101671.41;;;10.71;100.00
62791;BME280;48830;53.426;10.300;2023-03-20T11:21:16;101669.84;;;10.76;100.00
62791;BME280;48830;53.426;10.300;2023-03-20T11:23:42;101653.44;;;10.73;100.00
62791;BME280;48830;53.426;10.300;2023-03-20T11:26:13;101646.22;;;10.91;100.00
62791;BME280;48830;53.426;10.300;2023-03-20T11:28:54;101653.47;;;11.04;100.00
62791;BME280;48830;53.426;10.300;2023-03-20T11:31:59;101650.34;;;11.16;100.00
62791;BME280;48830;53.426;10.300;2023-03-20T11:36:54;101659.06;;;10.90;100.00
62791;BME280;48830;53.426;10.300;2023-03-20T11:39:25;101654.31;;;10.73;100.00
62791;BME280;48830;53.426;10.300;2023-03-20T11:41:56;101655.59;;;10.89;100.00
62791;BME280;48830;53.426;10.300;2023-03-20T11:44:29;101648.19;;;11.00;100.00
62791;BME280;48830;53.426;10.300;2023-03-20T11:49:23;101640.63;;;11.06;100.00
62791;BME280;48830;53.426;10.300;2023-03-20T11:51:51;101641.38;;;11.02;99.22
62791;BME280;48830;53.426;10.300;2023-03-20T11:54:21;101635.69;;;11.14;99.93
62791;BME280;48830;53.426;10.300;2023-03-20T11:59:21;101627.59;;;11.00;98.71
62791;BME280;48830;53.426;10.300;2023-03-20T12:01:52;101634.75;;;11.10;100.00
62791;BME280;48830;53.426;10.300;2023-03-20T12:04:30;101634.44;;;10.98;99.37
62791;BME280;48830;53.426;10.300;2023-03-20T12:07:05;101633.22;;;10.87;100.00
62791;BME280;48830;53.426;10.300;2023-03-20T12:15:32;101623.31;;;10.99;100.00
62791;BME280;48830;53.426;10.300;2023-03-20T12:21:14;101629.75;;;10.85;100.00
62791;BME280;48830;53.426;10.300;2023-03-20T12:23:45;101624.78;;;10.91;100.00
62791;BME280;48830;53.426;10.300;2023-03-20T12:26:14;101638.50;;;10.91;100.00
62791;BME280;48830;53.426;10.300;2023-03-20T12:31:19;101636.78;;;10.90;100.00
62791;BME280;48830;53.426;10.300;2023-03-20T12:34:06;101637.47;;;10.85;100.00
62791;BME280;48830;53.426;10.300;2023-03-20T12:36:42;101635.41;;;10.71;99.55
62791;BME280;48830;53.426;10.300;2023-03-20T12:39:20;101636.78;;;10.90;100.00
62791;BME280;48830;53.426;10.300;2023-03-20T12:44:55;101634.44;;;10.98;100.00
62791;BME280;48830;53.426;10.300;2023-03-20T12:53:12;101633.28;;;10.88;99.85
62791;BME280;48830;53.426;10.300;2023-03-20T13:01:19;101622.31;;;10.94;99.95
62791;BME280;48830;53.426;10.300;2023-03-20T13:14:33;101607.91;;;11.35;97.05
62791;BME280;48830;53.426;10.300;2023-03-20T13:20:06;101599.75;;;11.86;94.17
62791;BME280;48830;53.426;10.300;2023-03-20T13:38:39;101589.19;;;11.75;88.62
62791;BME280;48830;53.426;10.300;2023-03-20T13:41:07;101584.59;;;12.00;89.66
62791;BME280;48830;53.426;10.300;2023-03-20T13:43:40;101585.03;;;12.18;87.58
62791;BME280;48830;53.426;10.300;2023-03-20T13:46:11;101575.25;;;12.05;87.27
62791;BME280;48830;53.426;10.300;2023-03-20T13:48:37;101577.84;;;12.05;88.12
62791;BME280;48830;53.426;10.300;2023-03-20T13:56:35;101577.00;;;11.68;89.04
62791;BME280;48830;53.426;10.300;2023-03-20T14:05:34;101562.66;;;11.43;89.65
62791;BME280;48830;53.426;10.300;2023-03-20T14:11:25;101564.25;;;11.38;89.55
62791;BME280;48830;53.426;10.300;2023-03-20T14:14:11;101566.84;;;11.40;89.85
62791;BME280;48830;53.426;10.300;2023-03-20T14:16:39;101568.31;;;11.28;89.80
62791;BME280;48830;53.426;10.300;2023-03-20T14:19:14;101566.00;;;11.39;91.37
62791;BME280;48830;53.426;10.300;2023-03-20T14:21:45;101568.44;;;11.35;90.39
62791;BME280;48830;53.426;10.300;2023-03-20T14:24:13;101569.94;;;11.25;89.07
62791;BME280;48830;53.426;10.300;2023-03-20T14:26:40;101558.88;;;11.29;89.33
62791;BME280;48830;53.426;10.300;2023-03-20T14:31:37;101561.41;;;11.27;88.98
62791;BME280;48830;53.426;10.300;2023-03-20T14:39:49;101554.69;;;11.33;89.70
62791;BME280;48830;53.426;10.300;2023-03-20T14:48:13;101560.53;;;11.27;92.03
62791;BME280;48830;53.426;10.300;2023-03-20T14:53:25;101562.00;;;11.17;90.29
62791;BME280;48830;53.426;10.300;2023-03-20T15:01:05;101562.25;;;11.26;90.51
62791;BME280;48830;53.426;10.300;2023-03-20T15:03:32;101557.88;;;11.24;91.37
62791;BME280;48830;53.426;10.300;2023-03-20T15:06:04;101555.38;;;11.25;91.65
62791;BME280;48830;53.426;10.300;2023-03-20T15:08:33;101554.44;;;11.23;91.24
62791;BME280;48830;53.426;10.300;2023-03-20T15:11:07;101554.53;;;11.26;89.67
62791;BME280;48830;53.426;10.300;2023-03-20T15:13:34;101564.63;;;11.19;89.70
62791;BME280;48830;53.426;10.300;2023-03-20T15:18:39;101559.44;;;11.17;90.27
62791;BME280;48830;53.426;10.300;2023-03-20T15:21:17;101562.88;;;11.18;90.96
62791;BME280;48830;53.426;10.300;2023-03-20T15:23:44;101557.78;;;11.19;91.17
62791;BME280;48830;53.426;10.300;2023-03-20T15:26:13;101555.09;;;11.15;92.41
62791;BME280;48830;53.426;10.300;2023-03-20T15:28:39;101558.41;;;11.09;92.47
62791;BME280;48830;53.426;10.300;2023-03-20T15:31:19;101554.97;;;11.10;92.81
62791;BME280;48830;53.426;10.300;2023-03-20T15:33:45;101555.91;;;11.14;92.96
62791;BME280;48830;53.426;10.300;2023-03-20T15:36:17;101556.75;;;11.13;93.90
62791;BME280;48830;53.426;10.300;2023-03-20T15:38:44;101558.53;;;11.15;93.48
62791;BME280;48830;53.426;10.300;2023-03-20T15:41:31;101561.56;;;10.99;91.78
62791;BME280;48830;53.426;10.300;2023-03-20T15:46:39;101564.19;;;11.02;91.73
62791;BME280;48830;53.426;10.300;2023-03-20T15:49:04;101560.78;;;11.03;91.17
62791;BME280;48830;53.426;10.300;2023-03-20T15:51:30;101553.91;;;11.02;91.72